sensor_id;sensor_type;location;lat;lon;timestamp;temperature;humidity
55365;DHT22;41245;45.384;20.390;2022-08-07T00:02:06;666.30;153.60
55365;DHT22;41245;45.384;20.390;2022-08-07T00:04:32;666.10;153.60
55365;DHT22;41245;45.384;20.390;2022-08-07T00:06:58;666.20;153.60
55365;DHT22;41245;45.384;20.390;2022-08-07T00:09:23;666.20;153.60
55365;DHT22;41245;45.384;20.390;2022-08-07T00:11:50;666.10;153.60
55365;DHT22;41245;45.384;20.390;2022-08-07T00:14:15;666.00;153.60
55365;DHT22;41245;45.384;20.390;2022-08-07T00:16:41;666.00;153.60
55365;DHT22;41245;45.384;20.390;2022-08-07T00:19:07;666.00;153.60
55365;DHT22;41245;45.384;20.390;2022-08-07T00:21:33;666.00;153.60
55365;DHT22;41245;45.384;20.390;2022-08-07T00:23:58;666.00;153.60
55365;DHT22;41245;45.384;20.390;2022-08-07T00:26:24;666.00;153.60
55365;DHT22;41245;45.384;20.390;2022-08-07T00:28:50;666.00;153.60
55365;DHT22;41245;45.384;20.390;2022-08-07T00:31:15;665.90;153.60
55365;DHT22;41245;45.384;20.390;2022-08-07T00:33:41;665.70;153.60
55365;DHT22;41245;45.384;20.390;2022-08-07T00:36:07;665.70;153.60
55365;DHT22;41245;45.384;20.390;2022-08-07T00:38:33;665.60;153.60
55365;DHT22;41245;45.384;20.390;2022-08-07T00:41:02;665.60;153.60
55365;DHT22;41245;45.384;20.390;2022-08-07T00:43:28;665.60;153.60
55365;DHT22;41245;45.384;20.390;2022-08-07T00:45:54;665.60;153.60
55365;DHT22;41245;45.384;20.390;2022-08-07T00:48:20;640.90;128.00
55365;DHT22;41245;45.384;20.390;2022-08-07T00:50:45;665.60;153.60
55365;DHT22;41245;45.384;20.390;2022-08-07T00:53:11;665.60;153.60
55365;DHT22;41245;45.384;20.390;2022-08-07T00:55:37;665.60;153.60
55365;DHT22;41245;45.384;20.390;2022-08-07T00:58:03;640.90;128.00
55365;DHT22;41245;45.384;20.390;2022-08-07T01:00:29;640.90;128.00
55365;DHT22;41245;45.384;20.390;2022-08-07T01:02:55;665.60;153.60
55365;DHT22;41245;45.384;20.390;2022-08-07T01:05:22;640.90;128.00
55365;DHT22;41245;45.384;20.390;2022-08-07T01:07:48;640.70;128.00
55365;DHT22;41245;45.384;20.390;2022-08-07T01:10:14;640.80;128.00
55365;DHT22;41245;45.384;20.390;2022-08-07T01:12:40;640.70;128.00
55365;DHT22;41245;45.384;20.390;2022-08-07T01:15:07;640.60;128.00
55365;DHT22;41245;45.384;20.390;2022-08-07T01:17:33;640.60;128.00
55365;DHT22;41245;45.384;20.390;2022-08-07T01:20:11;640.60;128.00
55365;DHT22;41245;45.384;20.390;2022-08-07T01:22:39;640.40;128.00
55365;DHT22;41245;45.384;20.390;2022-08-07T01:25:06;640.40;128.00
55365;DHT22;41245;45.384;20.390;2022-08-07T01:27:32;640.50;128.00
55365;DHT22;41245;45.384;20.390;2022-08-07T01:29:59;640.40;128.00
55365;DHT22;41245;45.384;20.390;2022-08-07T01:32:25;640.40;128.00
55365;DHT22;41245;45.384;20.390;2022-08-07T01:34:51;640.30;128.00
55365;DHT22;41245;45.384;20.390;2022-08-07T01:37:18;640.30;128.00
55365;DHT22;41245;45.384;20.390;2022-08-07T01:39:44;640.20;128.00
55365;DHT22;41245;45.384;20.390;2022-08-07T01:42:13;640.20;128.00
55365;DHT22;41245;45.384;20.390;2022-08-07T01:44:39;640.20;128.00
55365;DHT22;41245;45.384;20.390;2022-08-07T01:47:06;640.20;128.00
55365;DHT22;41245;45.384;20.390;2022-08-07T01:49:32;640.20;128.00
55365;DHT22;41245;45.384;20.390;2022-08-07T01:51:59;640.10;128.00
55365;DHT22;41245;45.384;20.390;2022-08-07T01:54:27;640.10;128.00
55365;DHT22;41245;45.384;20.390;2022-08-07T01:57:01;640.10;128.00
55365;DHT22;41245;45.384;20.390;2022-08-07T01:59:56;640.10;128.00
55365;DHT22;41245;45.384;20.390;2022-08-07T02:02:34;615.30;128.00
55365;DHT22;41245;45.384;20.390;2022-08-07T02:05:06;615.30;128.00
55365;DHT22;41245;45.384;20.390;2022-08-07T02:07:36;615.20;128.00
55365;DHT22;41245;45.384;20.390;2022-08-07T02:10:04;615.20;128.00
55365;DHT22;41245;45.384;20.390;2022-08-07T02:12:33;615.20;128.00
55365;DHT22;41245;45.384;20.390;2022-08-07T02:15:00;615.10;128.00
55365;DHT22;41245;45.384;20.390;2022-08-07T02:17:27;615.00;128.00
55365;DHT22;41245;45.384;20.390;2022-08-07T02:19:54;614.80;128.00
55365;DHT22;41245;45.384;20.390;2022-08-07T02:22:21;614.80;128.00
55365;DHT22;41245;45.384;20.390;2022-08-07T02:24:49;614.80;128.00
55365;DHT22;41245;45.384;20.390;2022-08-07T02:27:20;614.70;128.00
55365;DHT22;41245;45.384;20.390;2022-08-07T02:29:47;614.70;128.00
55365;DHT22;41245;45.384;20.390;2022-08-07T02:32:15;614.70;128.00
55365;DHT22;41245;45.384;20.390;2022-08-07T02:34:43;614.70;128.00
55365;DHT22;41245;45.384;20.390;2022-08-07T02:37:10;614.60;128.00
55365;DHT22;41245;45.384;20.390;2022-08-07T02:39:39;614.40;128.00
55365;DHT22;41245;45.384;20.390;2022-08-07T02:42:05;614.40;128.00
55365;DHT22;41245;45.384;20.390;2022-08-07T02:44:32;614.40;128.00
55365;DHT22;41245;45.384;20.390;2022-08-07T02:46:59;614.50;128.00
55365;DHT22;41245;45.384;20.390;2022-08-07T02:49:26;614.60;128.00
55365;DHT22;41245;45.384;20.390;2022-08-07T02:51:54;614.60;128.00
55365;DHT22;41245;45.384;20.390;2022-08-07T02:54:21;614.60;128.00
55365;DHT22;41245;45.384;20.390;2022-08-07T02:56:48;614.60;128.00
55365;DHT22;41245;45.384;20.390;2022-08-07T02:59:18;614.60;128.00
55365;DHT22;41245;45.384;20.390;2022-08-07T03:01:45;614.60;128.00
55365;DHT22;41245;45.384;20.390;2022-08-07T03:04:13;614.60;128.00
55365;DHT22;41245;45.384;20.390;2022-08-07T03:06:42;614.50;128.00
55365;DHT22;41245;45.384;20.390;2022-08-07T03:09:08;614.50;128.00
55365;DHT22;41245;45.384;20.390;2022-08-07T03:11:35;614.50;128.00
55365;DHT22;41245;45.384;20.390;2022-08-07T03:14:03;614.40;128.00
55365;DHT22;41245;45.384;20.390;2022-08-07T03:16:32;589.70;128.00
55365;DHT22;41245;45.384;20.390;2022-08-07T03:18:59;614.40;128.00
55365;DHT22;41245;45.384;20.390;2022-08-07T03:21:26;614.40;128.00
55365;DHT22;41245;45.384;20.390;2022-08-07T03:23:56;614.50;128.00
55365;DHT22;41245;45.384;20.390;2022-08-07T03:26:25;614.50;128.00
55365;DHT22;41245;45.384;20.390;2022-08-07T03:28:54;614.50;128.00
55365;DHT22;41245;45.384;20.390;2022-08-07T03:31:21;614.40;128.00
55365;DHT22;41245;45.384;20.390;2022-08-07T03:33:57;614.40;128.00
55365;DHT22;41245;45.384;20.390;2022-08-07T03:36:25;614.50;128.00
55365;DHT22;41245;45.384;20.390;2022-08-07T03:38:54;614.70;128.00
55365;DHT22;41245;45.384;20.390;2022-08-07T03:41:22;614.60;128.00
55365;DHT22;41245;45.384;20.390;2022-08-07T03:43:48;614.60;128.00
55365;DHT22;41245;45.384;20.390;2022-08-07T03:46:14;614.70;128.00
55365;DHT22;41245;45.384;20.390;2022-08-07T03:48:41;614.70;128.00
55365;DHT22;41245;45.384;20.390;2022-08-07T03:51:07;614.70;128.00
55365;DHT22;41245;45.384;20.390;2022-08-07T03:53:33;614.90;128.00
55365;DHT22;41245;45.384;20.390;2022-08-07T03:56:00;614.70;128.00
55365;DHT22;41245;45.384;20.390;2022-08-07T03:58:27;615.00;128.00
55365;DHT22;41245;45.384;20.390;2022-08-07T04:00:55;615.10;128.00
55365;DHT22;41245;45.384;20.390;2022-08-07T04:03:21;615.20;128.00
55365;DHT22;41245;45.384;20.390;2022-08-07T04:05:47;640.40;128.00
55365;DHT22;41245;45.384;20.390;2022-08-07T04:08:14;640.80;128.00
55365;DHT22;41245;45.384;20.390;2022-08-07T04:10:41;665.80;153.60
55365;DHT22;41245;45.384;20.390;2022-08-07T04:13:09;666.20;153.60
55365;DHT22;41245;45.384;20.390;2022-08-07T04:15:35;691.40;153.60
55365;DHT22;41245;45.384;20.390;2022-08-07T04:18:01;691.70;153.60
55365;DHT22;41245;45.384;20.390;2022-08-07T04:20:28;692.10;153.60
55365;DHT22;41245;45.384;20.390;2022-08-07T04:22:54;717.00;179.20
55365;DHT22;41245;45.384;20.390;2022-08-07T04:25:24;717.20;179.20
55365;DHT22;41245;45.384;20.390;2022-08-07T04:27:50;717.20;179.20
55365;DHT22;41245;45.384;20.390;2022-08-07T04:30:16;717.60;179.20
55365;DHT22;41245;45.384;20.390;2022-08-07T04:35:09;742.60;204.80
55365;DHT22;41245;45.384;20.390;2022-08-07T04:37:35;743.10;204.80
55365;DHT22;41245;45.384;20.390;2022-08-07T04:40:02;742.90;204.80
55365;DHT22;41245;45.384;20.390;2022-08-07T04:42:28;743.10;204.80
55365;DHT22;41245;45.384;20.390;2022-08-07T04:44:56;743.10;204.80
55365;DHT22;41245;45.384;20.390;2022-08-07T04:50:34;743.20;204.80
55365;DHT22;41245;45.384;20.390;2022-08-07T04:53:09;742.90;204.80
55365;DHT22;41245;45.384;20.390;2022-08-07T05:01:12;743.20;204.80
55365;DHT22;41245;45.384;20.390;2022-08-07T05:03:50;743.20;204.80
55365;DHT22;41245;45.384;20.390;2022-08-07T05:07:06;768.10;204.80
55365;DHT22;41245;45.384;20.390;2022-08-07T05:10:28;743.20;204.80
55365;DHT22;41245;45.384;20.390;2022-08-07T05:12:31;743.10;204.80
55365;DHT22;41245;45.384;20.390;2022-08-07T05:15:28;743.20;204.80
55365;DHT22;41245;45.384;20.390;2022-08-07T05:18:01;743.30;204.80
55365;DHT22;41245;45.384;20.390;2022-08-07T05:20:44;768.00;204.80
55365;DHT22;41245;45.384;20.390;2022-08-07T05:23:20;768.60;204.80
55365;DHT22;41245;45.384;20.390;2022-08-07T05:25:48;793.70;230.40
55365;DHT22;41245;45.384;20.390;2022-08-07T05:28:15;794.20;230.40
55365;DHT22;41245;45.384;20.390;2022-08-07T05:30:42;794.30;230.40
55365;DHT22;41245;45.384;20.390;2022-08-07T05:33:10;793.80;230.40
55365;DHT22;41245;45.384;20.390;2022-08-07T05:35:37;819.20;230.40
55365;DHT22;41245;45.384;20.390;2022-08-07T05:38:04;819.40;230.40
55365;DHT22;41245;45.384;20.390;2022-08-07T05:40:35;819.30;230.40
55365;DHT22;41245;45.384;20.390;2022-08-07T05:43:01;819.40;230.40
55365;DHT22;41245;45.384;20.390;2022-08-07T05:45:28;819.20;230.40
55365;DHT22;41245;45.384;20.390;2022-08-07T05:47:54;844.90;256.00
55365;DHT22;41245;45.384;20.390;2022-08-07T05:50:21;845.10;256.00
55365;DHT22;41245;45.384;20.390;2022-08-07T06:00:07;896.20;256.00
55365;DHT22;41245;45.384;20.390;2022-08-07T06:02:35;896.10;256.00
55365;DHT22;41245;45.384;20.390;2022-08-07T06:05:07;896.30;256.00
55365;DHT22;41245;45.384;20.390;2022-08-07T06:07:34;896.10;256.00
55365;DHT22;41245;45.384;20.390;2022-08-07T06:10:01;871.30;256.00
55365;DHT22;41245;45.384;20.390;2022-08-07T06:12:27;870.90;256.00
55365;DHT22;41245;45.384;20.390;2022-08-07T06:14:54;820.10;230.40
55365;DHT22;41245;45.384;20.390;2022-08-07T06:17:20;794.50;230.40
55365;DHT22;41245;45.384;20.390;2022-08-07T06:19:47;793.90;230.40
55365;DHT22;41245;45.384;20.390;2022-08-07T06:22:15;768.10;204.80
55365;DHT22;41245;45.384;20.390;2022-08-07T06:24:41;743.20;204.80
55365;DHT22;41245;45.384;20.390;2022-08-07T06:27:07;742.60;204.80
55365;DHT22;41245;45.384;20.390;2022-08-07T06:29:33;742.70;204.80
55365;DHT22;41245;45.384;20.390;2022-08-07T06:31:59;717.70;179.20
55365;DHT22;41245;45.384;20.390;2022-08-07T06:34:26;717.00;179.20
55365;DHT22;41245;45.384;20.390;2022-08-07T06:36:52;717.20;179.20
55365;DHT22;41245;45.384;20.390;2022-08-07T06:39:19;717.00;179.20
55365;DHT22;41245;45.384;20.390;2022-08-07T06:41:48;717.10;179.20
55365;DHT22;41245;45.384;20.390;2022-08-07T06:44:19;717.10;179.20
55365;DHT22;41245;45.384;20.390;2022-08-07T06:46:46;717.00;179.20
55365;DHT22;41245;45.384;20.390;2022-08-07T06:49:12;717.10;179.20
55365;DHT22;41245;45.384;20.390;2022-08-07T06:51:39;692.10;153.60
55365;DHT22;41245;45.384;20.390;2022-08-07T06:54:06;716.80;179.20
55365;DHT22;41245;45.384;20.390;2022-08-07T06:56:34;716.80;179.20
55365;DHT22;41245;45.384;20.390;2022-08-07T06:59:09;716.80;179.20
55365;DHT22;41245;45.384;20.390;2022-08-07T07:01:36;691.90;153.60
55365;DHT22;41245;45.384;20.390;2022-08-07T07:04:05;692.10;153.60
55365;DHT22;41245;45.384;20.390;2022-08-07T07:06:31;717.00;179.20
55365;DHT22;41245;45.384;20.390;2022-08-07T07:09:17;717.20;179.20
55365;DHT22;41245;45.384;20.390;2022-08-07T07:17:11;717.60;179.20
55365;DHT22;41245;45.384;20.390;2022-08-07T07:19:45;717.40;179.20
55365;DHT22;41245;45.384;20.390;2022-08-07T07:22:12;717.50;179.20
55365;DHT22;41245;45.384;20.390;2022-08-07T07:24:39;717.60;179.20
55365;DHT22;41245;45.384;20.390;2022-08-07T07:27:07;717.60;179.20
55365;DHT22;41245;45.384;20.390;2022-08-07T07:29:37;717.30;179.20
55365;DHT22;41245;45.384;20.390;2022-08-07T07:32:04;717.50;179.20
55365;DHT22;41245;45.384;20.390;2022-08-07T07:34:32;717.60;179.20
55365;DHT22;41245;45.384;20.390;2022-08-07T07:37:02;717.60;179.20
55365;DHT22;41245;45.384;20.390;2022-08-07T07:39:29;742.40;204.80
55365;DHT22;41245;45.384;20.390;2022-08-07T07:41:56;742.40;204.80
55365;DHT22;41245;45.384;20.390;2022-08-07T07:44:26;717.50;179.20
55365;DHT22;41245;45.384;20.390;2022-08-07T07:46:54;742.40;204.80
55365;DHT22;41245;45.384;20.390;2022-08-07T07:49:22;742.50;204.80
55365;DHT22;41245;45.384;20.390;2022-08-07T07:51:49;742.50;204.80
55365;DHT22;41245;45.384;20.390;2022-08-07T07:54:17;742.50;204.80
55365;DHT22;41245;45.384;20.390;2022-08-07T07:56:45;742.40;204.80
55365;DHT22;41245;45.384;20.390;2022-08-07T07:59:11;742.40;204.80
55365;DHT22;41245;45.384;20.390;2022-08-07T08:01:42;742.50;204.80
55365;DHT22;41245;45.384;20.390;2022-08-07T08:04:09;742.40;204.80
55365;DHT22;41245;45.384;20.390;2022-08-07T08:06:35;742.50;204.80
55365;DHT22;41245;45.384;20.390;2022-08-07T08:09:05;742.80;204.80
55365;DHT22;41245;45.384;20.390;2022-08-07T08:11:32;717.70;179.20
55365;DHT22;41245;45.384;20.390;2022-08-07T08:13:58;742.40;204.80
55365;DHT22;41245;45.384;20.390;2022-08-07T08:18:57;742.50;204.80
55365;DHT22;41245;45.384;20.390;2022-08-07T08:21:24;742.40;204.80
55365;DHT22;41245;45.384;20.390;2022-08-07T08:24:08;742.50;204.80
55365;DHT22;41245;45.384;20.390;2022-08-07T08:26:54;742.60;204.80
55365;DHT22;41245;45.384;20.390;2022-08-07T08:29:50;742.70;204.80
55365;DHT22;41245;45.384;20.390;2022-08-07T08:32:20;742.80;204.80
55365;DHT22;41245;45.384;20.390;2022-08-07T08:34:47;742.70;204.80
55365;DHT22;41245;45.384;20.390;2022-08-07T08:37:15;742.70;204.80
55365;DHT22;41245;45.384;20.390;2022-08-07T08:39:43;742.50;204.80
55365;DHT22;41245;45.384;20.390;2022-08-07T08:45:01;742.70;204.80
55365;DHT22;41245;45.384;20.390;2022-08-07T08:47:39;742.80;204.80
55365;DHT22;41245;45.384;20.390;2022-08-07T08:52:56;742.80;204.80
55365;DHT22;41245;45.384;20.390;2022-08-07T08:55:32;742.90;204.80
55365;DHT22;41245;45.384;20.390;2022-08-07T09:00:44;742.90;204.80
55365;DHT22;41245;45.384;20.390;2022-08-07T09:09:20;743.30;204.80
55365;DHT22;41245;45.384;20.390;2022-08-07T09:20:31;768.10;204.80
55365;DHT22;41245;45.384;20.390;2022-08-07T09:23:12;768.20;204.80
55365;DHT22;41245;45.384;20.390;2022-08-07T09:28:38;768.30;204.80
55365;DHT22;41245;45.384;20.390;2022-08-07T09:31:19;768.50;204.80
55365;DHT22;41245;45.384;20.390;2022-08-07T09:34:14;768.50;204.80
55365;DHT22;41245;45.384;20.390;2022-08-07T09:39:50;768.80;204.80
55365;DHT22;41245;45.384;20.390;2022-08-07T09:45:19;793.60;230.40
55365;DHT22;41245;45.384;20.390;2022-08-07T09:53:38;793.70;230.40
55365;DHT22;41245;45.384;20.390;2022-08-07T10:10:00;793.90;230.40
55365;DHT22;41245;45.384;20.390;2022-08-07T10:18:09;793.80;230.40
55365;DHT22;41245;45.384;20.390;2022-08-07T10:26:04;794.30;230.40
55365;DHT22;41245;45.384;20.390;2022-08-07T17:59:46;820.00;230.40
55365;DHT22;41245;45.384;20.390;2022-08-07T18:10:24;768.70;204.80
55365;DHT22;41245;45.384;20.390;2022-08-07T18:13:12;768.60;204.80
55365;DHT22;41245;45.384;20.390;2022-08-07T18:16:03;768.40;204.80
55365;DHT22;41245;45.384;20.390;2022-08-07T18:18:38;768.20;204.80
55365;DHT22;41245;45.384;20.390;2022-08-07T18:21:16;768.10;204.80
55365;DHT22;41245;45.384;20.390;2022-08-07T18:23:59;768.00;204.80
55365;DHT22;41245;45.384;20.390;2022-08-07T18:29:15;743.30;204.80
55365;DHT22;41245;45.384;20.390;2022-08-07T18:42:38;743.10;204.80
55365;DHT22;41245;45.384;20.390;2022-08-07T18:45:15;743.00;204.80
55365;DHT22;41245;45.384;20.390;2022-08-07T18:47:55;743.00;204.80
55365;DHT22;41245;45.384;20.390;2022-08-07T18:53:22;742.90;204.80
55365;DHT22;41245;45.384;20.390;2022-08-07T19:01:41;742.90;204.80
55365;DHT22;41245;45.384;20.390;2022-08-07T19:04:28;742.90;204.80
55365;DHT22;41245;45.384;20.390;2022-08-07T19:07:00;742.80;204.80
55365;DHT22;41245;45.384;20.390;2022-08-07T19:14:50;742.70;204.80
55365;DHT22;41245;45.384;20.390;2022-08-07T19:17:18;742.60;204.80
55365;DHT22;41245;45.384;20.390;2022-08-07T19:20:02;742.50;204.80
55365;DHT22;41245;45.384;20.390;2022-08-07T19:22:36;742.50;204.80
55365;DHT22;41245;45.384;20.390;2022-08-07T19:25:02;742.40;204.80
55365;DHT22;41245;45.384;20.390;2022-08-07T19:27:31;717.70;179.20
55365;DHT22;41245;45.384;20.390;2022-08-07T19:30:08;717.60;179.20
55365;DHT22;41245;45.384;20.390;2022-08-07T19:32:38;717.60;179.20
55365;DHT22;41245;45.384;20.390;2022-08-07T19:35:26;717.50;179.20
55365;DHT22;41245;45.384;20.390;2022-08-07T19:37:57;717.50;179.20
55365;DHT22;41245;45.384;20.390;2022-08-07T19:40:26;717.50;179.20
55365;DHT22;41245;45.384;20.390;2022-08-07T19:42:53;717.50;179.20
55365;DHT22;41245;45.384;20.390;2022-08-07T19:45:22;717.40;179.20
55365;DHT22;41245;45.384;20.390;2022-08-07T19:47:51;717.40;179.20
55365;DHT22;41245;45.384;20.390;2022-08-07T19:50:20;717.30;179.20
55365;DHT22;41245;45.384;20.390;2022-08-07T19:52:46;717.30;179.20
55365;DHT22;41245;45.384;20.390;2022-08-07T19:55:17;717.30;179.20
55365;DHT22;41245;45.384;20.390;2022-08-07T19:57:46;717.30;179.20
55365;DHT22;41245;45.384;20.390;2022-08-07T20:00:14;717.30;179.20
55365;DHT22;41245;45.384;20.390;2022-08-07T20:02:46;717.20;179.20
55365;DHT22;41245;45.384;20.390;2022-08-07T20:05:15;717.10;179.20
55365;DHT22;41245;45.384;20.390;2022-08-07T20:07:45;717.10;179.20
55365;DHT22;41245;45.384;20.390;2022-08-07T20:10:16;717.00;179.20
55365;DHT22;41245;45.384;20.390;2022-08-07T20:12:41;716.90;179.20
55365;DHT22;41245;45.384;20.390;2022-08-07T20:15:16;716.80;179.20
55365;DHT22;41245;45.384;20.390;2022-08-07T20:17:44;716.80;179.20
55365;DHT22;41245;45.384;20.390;2022-08-07T20:20:11;716.80;179.20
55365;DHT22;41245;45.384;20.390;2022-08-07T20:22:43;692.10;153.60
55365;DHT22;41245;45.384;20.390;2022-08-07T20:25:09;692.10;153.60
55365;DHT22;41245;45.384;20.390;2022-08-07T20:27:35;692.00;153.60
55365;DHT22;41245;45.384;20.390;2022-08-07T20:30:03;692.00;153.60
55365;DHT22;41245;45.384;20.390;2022-08-07T20:32:40;691.90;153.60
55365;DHT22;41245;45.384;20.390;2022-08-07T20:35:18;691.80;153.60
55365;DHT22;41245;45.384;20.390;2022-08-07T20:37:47;691.80;153.60
55365;DHT22;41245;45.384;20.390;2022-08-07T20:40:15;691.80;153.60
55365;DHT22;41245;45.384;20.390;2022-08-07T20:42:45;691.70;153.60
55365;DHT22;41245;45.384;20.390;2022-08-07T20:45:13;691.60;153.60
55365;DHT22;41245;45.384;20.390;2022-08-07T20:47:46;691.60;153.60
55365;DHT22;41245;45.384;20.390;2022-08-07T20:50:13;691.50;153.60
55365;DHT22;41245;45.384;20.390;2022-08-07T20:52:40;692.00;153.60
55365;DHT22;41245;45.384;20.390;2022-08-07T20:55:06;691.30;153.60
55365;DHT22;41245;45.384;20.390;2022-08-07T20:57:55;691.30;153.60
55365;DHT22;41245;45.384;20.390;2022-08-07T21:00:30;691.40;153.60
55365;DHT22;41245;45.384;20.390;2022-08-07T21:03:01;691.20;153.60
55365;DHT22;41245;45.384;20.390;2022-08-07T21:05:38;666.50;153.60
55365;DHT22;41245;45.384;20.390;2022-08-07T21:08:08;666.40;153.60
55365;DHT22;41245;45.384;20.390;2022-08-07T21:10:37;666.40;153.60
55365;DHT22;41245;45.384;20.390;2022-08-07T21:13:12;666.30;153.60
55365;DHT22;41245;45.384;20.390;2022-08-07T21:15:43;666.30;153.60
55365;DHT22;41245;45.384;20.390;2022-08-07T21:18:11;666.30;153.60
55365;DHT22;41245;45.384;20.390;2022-08-07T21:20:38;666.20;153.60
55365;DHT22;41245;45.384;20.390;2022-08-07T21:23:23;666.10;153.60
55365;DHT22;41245;45.384;20.390;2022-08-07T21:26:09;666.10;153.60
55365;DHT22;41245;45.384;20.390;2022-08-07T21:28:46;666.10;153.60
55365;DHT22;41245;45.384;20.390;2022-08-07T21:31:34;666.00;153.60
55365;DHT22;41245;45.384;20.390;2022-08-07T21:34:19;666.00;153.60
55365;DHT22;41245;45.384;20.390;2022-08-07T21:37:10;665.90;153.60
55365;DHT22;41245;45.384;20.390;2022-08-07T21:39:58;665.70;153.60
55365;DHT22;41245;45.384;20.390;2022-08-07T21:42:41;665.70;153.60
55365;DHT22;41245;45.384;20.390;2022-08-07T21:50:51;665.60;153.60
55365;DHT22;41245;45.384;20.390;2022-08-07T21:53:41;665.60;153.60
55365;DHT22;41245;45.384;20.390;2022-08-07T21:56:25;640.90;128.00
55365;DHT22;41245;45.384;20.390;2022-08-07T21:59:17;665.60;153.60
55365;DHT22;41245;45.384;20.390;2022-08-07T22:02:00;640.90;128.00
55365;DHT22;41245;45.384;20.390;2022-08-07T22:04:40;640.90;128.00
55365;DHT22;41245;45.384;20.390;2022-08-07T22:07:24;640.90;128.00
55365;DHT22;41245;45.384;20.390;2022-08-07T22:09:55;640.90;128.00
55365;DHT22;41245;45.384;20.390;2022-08-07T22:12:35;665.60;153.60
55365;DHT22;41245;45.384;20.390;2022-08-07T22:15:18;640.80;128.00
55365;DHT22;41245;45.384;20.390;2022-08-07T22:17:58;640.80;128.00
55365;DHT22;41245;45.384;20.390;2022-08-07T22:20:41;640.80;128.00
55365;DHT22;41245;45.384;20.390;2022-08-07T22:28:47;640.80;128.00
55365;DHT22;41245;45.384;20.390;2022-08-07T22:34:07;640.50;128.00
55365;DHT22;41245;45.384;20.390;2022-08-07T22:36:52;640.50;128.00
55365;DHT22;41245;45.384;20.390;2022-08-07T22:39:32;640.50;128.00
55365;DHT22;41245;45.384;20.390;2022-08-07T22:42:18;640.50;128.00
55365;DHT22;41245;45.384;20.390;2022-08-07T22:44:49;640.50;128.00
55365;DHT22;41245;45.384;20.390;2022-08-07T22:50:25;640.40;128.00
55365;DHT22;41245;45.384;20.390;2022-08-07T22:58:36;640.30;128.00
55365;DHT22;41245;45.384;20.390;2022-08-07T23:09:17;640.10;128.00
55365;DHT22;41245;45.384;20.390;2022-08-07T23:20:26;640.20;128.00
55365;DHT22;41245;45.384;20.390;2022-08-07T23:26:06;640.20;128.00
55365;DHT22;41245;45.384;20.390;2022-08-07T23:31:55;640.10;128.00
55365;DHT22;41245;45.384;20.390;2022-08-07T23:43:58;615.30;128.00
55365;DHT22;41245;45.384;20.390;2022-08-07T23:51:28;615.20;128.00
